Time;durP1;ratioP1;P1;durP2;ratioP2;P2;SDS_P1;SDS_P2;PMS_P1;PMS_P2;Temp;Humidity;BMP_temperature;BMP_pressure;BME280_temperature;BME280_humidity;BME280_pressure;Samples;Min_cycle;Max_cycle;Signal;HPM_P1;HPM_P2
2024/02/11 00:00:18;;;;;;;13.95;7.43;;;;;;;;;;5069482;28;20051;-76
2024/02/11 00:02:43;;;;;;;12.75;7.80;;;;;;;;;;5073754;28;20107;-76
2024/02/11 00:05:09;;;;;;;14.05;8.10;;;;;;;;;;5074048;28;20473;-76
2024/02/11 00:07:39;;;;;;;13.43;8.13;;;;;;;;;;5068828;28;20035;-76
2024/02/11 00:10:08;;;;;;;13.82;8.40;;;;;;;;;;5069549;28;20123;-76
2024/02/11 00:12:34;;;;;;;13.18;8.15;;;;;;;;;;5069685;28;20398;-76
2024/02/11 00:15:01;;;;;;;12.07;7.55;;;;;;;;;;5074012;28;20056;-76
2024/02/11 00:17:26;;;;;;;12.95;8.45;;;;;;;;;;5068478;28;20404;-76
2024/02/11 00:19:51;;;;;;;12.60;8.25;;;;;;;;;;5069507;28;20032;-76
2024/02/11 00:22:16;;;;;;;14.02;9.38;;;;;;;;;;5069811;28;20043;-75
2024/02/11 00:24:41;;;;;;;18.97;9.77;;;;;;;;;;5073969;28;20114;-76
2024/02/11 00:27:09;;;;;;;13.80;9.65;;;;;;;;;;5069766;28;20393;-76
2024/02/11 00:29:34;;;;;;;17.27;10.70;;;;;;;;;;5068257;28;20029;-76
2024/02/11 00:31:59;;;;;;;16.27;10.95;;;;;;;;;;5070431;28;20131;-76
2024/02/11 00:34:24;;;;;;;18.13;10.85;;;;;;;;;;5084024;28;20051;-76
2024/02/11 00:36:50;;;;;;;21.23;12.77;;;;;;;;;;5070010;28;20540;-76
2024/02/11 00:39:15;;;;;;;20.03;12.63;;;;;;;;;;5068423;28;20298;-76
2024/02/11 00:41:41;;;;;;;23.48;13.43;;;;;;;;;;5072817;28;20276;-76
2024/02/11 00:44:08;;;;;;;25.65;15.60;;;;;;;;;;5078142;28;20036;-76
2024/02/11 00:46:34;;;;;;;24.63;15.10;;;;;;;;;;5074322;28;20055;-76
2024/02/11 00:49:00;;;;;;;27.23;16.13;;;;;;;;;;5073331;28;20039;-76
2024/02/11 00:51:27;;;;;;;23.33;15.38;;;;;;;;;;5071789;28;20408;-76
2024/02/11 00:53:52;;;;;;;28.52;17.65;;;;;;;;;;5079989;28;20391;-76
2024/02/11 00:56:20;;;;;;;25.75;15.10;;;;;;;;;;5073130;28;20073;-76
2024/02/11 00:58:45;;;;;;;25.58;15.93;;;;;;;;;;5077513;28;20036;-76
2024/02/11 01:01:10;;;;;;;26.13;16.00;;;;;;;;;;5072660;28;20025;-76
2024/02/11 01:03:37;;;;;;;26.90;16.38;;;;;;;;;;5079018;28;20067;-76
2024/02/11 01:06:02;;;;;;;24.13;15.45;;;;;;;;;;5073128;28;20041;-76
2024/02/11 01:08:28;;;;;;;25.20;15.38;;;;;;;;;;5071684;28;20046;-76
2024/02/11 01:10:53;;;;;;;25.23;15.18;;;;;;;;;;5072558;28;20059;-76
2024/02/11 01:13:18;;;;;;;24.92;14.93;;;;;;;;;;5080382;28;20123;-76
2024/02/11 01:15:43;;;;;;;22.42;14.23;;;;;;;;;;5072787;28;20029;-76
2024/02/11 01:18:10;;;;;;;22.58;14.45;;;;;;;;;;5072817;28;20082;-76
2024/02/11 01:20:35;;;;;;;22.35;14.10;;;;;;;;;;5071064;28;20086;-76
2024/02/11 01:23:00;;;;;;;23.05;14.80;;;;;;;;;;5073701;28;20456;-76
2024/02/11 01:25:25;;;;;;;25.43;14.90;;;;;;;;;;5074727;28;20439;-76
2024/02/11 01:27:50;;;;;;;23.67;14.68;;;;;;;;;;5078192;28;20310;-76
2024/02/11 01:30:17;;;;;;;24.42;15.48;;;;;;;;;;5072001;28;20037;-76
2024/02/11 01:32:43;;;;;;;24.08;15.05;;;;;;;;;;5082496;28;20078;-76
2024/02/11 01:35:09;;;;;;;25.27;15.05;;;;;;;;;;5075874;28;20028;-76
2024/02/11 01:37:34;;;;;;;25.35;15.82;;;;;;;;;;5072398;28;20493;-76
2024/02/11 01:39:59;;;;;;;23.05;14.43;;;;;;;;;;5072032;28;20036;-76
2024/02/11 01:42:24;;;;;;;22.02;14.23;;;;;;;;;;5072363;28;20060;-76
2024/02/11 01:44:50;;;;;;;23.27;15.00;;;;;;;;;;5078526;28;20028;-76
2024/02/11 01:47:15;;;;;;;24.50;15.68;;;;;;;;;;5072209;28;20056;-76
2024/02/11 01:49:40;;;;;;;22.58;13.82;;;;;;;;;;5072533;28;20031;-76
2024/02/11 01:52:06;;;;;;;23.55;14.45;;;;;;;;;;5070592;28;20036;-76
2024/02/11 01:54:31;;;;;;;25.33;15.32;;;;;;;;;;5075014;28;20484;-76
2024/02/11 01:56:56;;;;;;;25.38;14.48;;;;;;;;;;5072196;28;20031;-76
2024/02/11 01:59:22;;;;;;;23.48;14.15;;;;;;;;;;5072057;28;20494;-76
2024/02/11 02:01:47;;;;;;;21.55;13.23;;;;;;;;;;5071642;28;20093;-76
2024/02/11 02:04:14;;;;;;;22.40;14.50;;;;;;;;;;5078743;28;20025;-76
2024/02/11 02:06:39;;;;;;;21.88;13.48;;;;;;;;;;5071871;28;20032;-76
2024/02/11 02:09:04;;;;;;;19.00;12.60;;;;;;;;;;5071975;28;20029;-76
2024/02/11 02:11:29;;;;;;;23.02;15.10;;;;;;;;;;5071266;28;20127;-76
2024/02/11 02:13:55;;;;;;;24.65;15.90;;;;;;;;;;5074682;28;20028;-76
2024/02/11 02:16:22;;;;;;;22.15;14.25;;;;;;;;;;5071410;28;20395;-76
2024/02/11 02:18:49;;;;;;;25.52;16.15;;;;;;;;;;5071886;28;20033;-76
2024/02/11 02:21:18;;;;;;;26.10;17.05;;;;;;;;;;5071387;28;20044;-76
2024/02/11 02:23:43;;;;;;;21.25;14.10;;;;;;;;;;5073991;28;20060;-76
2024/02/11 02:26:09;;;;;;;23.90;15.45;;;;;;;;;;5071526;28;20067;-76
2024/02/11 02:28:34;;;;;;;25.38;15.55;;;;;;;;;;5071663;28;20029;-76
2024/02/11 02:30:59;;;;;;;23.05;14.50;;;;;;;;;;5070778;28;20032;-76
2024/02/11 02:33:24;;;;;;;24.50;15.27;;;;;;;;;;5078793;28;20027;-76
2024/02/11 02:35:50;;;;;;;24.90;15.43;;;;;;;;;;5071478;28;20515;-76
2024/02/11 02:38:16;;;;;;;20.77;13.35;;;;;;;;;;5071354;28;20282;-76
2024/02/11 02:40:41;;;;;;;26.95;15.88;;;;;;;;;;5070973;28;20043;-76
2024/02/11 02:43:10;;;;;;;22.85;15.00;;;;;;;;;;5072075;28;20036;-76
2024/02/11 02:45:35;;;;;;;28.13;18.42;;;;;;;;;;5071747;28;20111;-76
2024/02/11 02:48:01;;;;;;;23.73;15.60;;;;;;;;;;5075743;28;20040;-76
2024/02/11 02:50:26;;;;;;;24.60;15.20;;;;;;;;;;5070536;28;20028;-76
2024/02/11 02:52:51;;;;;;;25.33;17.15;;;;;;;;;;5070926;28;20040;-76
2024/02/11 02:55:17;;;;;;;28.35;17.95;;;;;;;;;;5073725;28;20104;-76
2024/02/11 02:57:43;;;;;;;30.77;18.05;;;;;;;;;;5070922;28;20031;-76
2024/02/11 03:00:09;;;;;;;26.25;15.43;;;;;;;;;;5070326;28;20032;-76
2024/02/11 03:02:34;;;;;;;23.73;15.30;;;;;;;;;;5074427;28;20106;-76
2024/02/11 03:05:00;;;;;;;24.15;15.90;;;;;;;;;;5080771;28;20435;-76
2024/02/11 03:07:25;;;;;;;26.23;17.42;;;;;;;;;;5070695;28;20128;-76
2024/02/11 03:09:51;;;;;;;26.65;16.20;;;;;;;;;;5069254;28;20035;-76
2024/02/11 03:12:16;;;;;;;28.38;16.95;;;;;;;;;;5070690;28;20032;-76
2024/02/11 03:14:41;;;;;;;26.08;15.88;;;;;;;;;;5072148;28;20020;-76
2024/02/11 03:17:07;;;;;;;25.97;16.47;;;;;;;;;;5070706;28;20473;-76
2024/02/11 03:19:32;;;;;;;24.50;15.50;;;;;;;;;;5070464;28;20279;-76
2024/02/11 03:21:57;;;;;;;24.70;15.38;;;;;;;;;;5071396;28;20090;-76
2024/02/11 03:24:22;;;;;;;25.23;16.48;;;;;;;;;;5074759;28;20349;-76
2024/02/11 03:26:48;;;;;;;24.65;14.93;;;;;;;;;;5070444;28;20420;-76
2024/02/11 03:29:14;;;;;;;25.67;15.32;;;;;;;;;;5070260;28;20043;-76
2024/02/11 03:31:41;;;;;;;23.15;14.70;;;;;;;;;;5076683;28;20037;-76
2024/02/11 03:34:06;;;;;;;24.17;15.93;;;;;;;;;;5074741;28;20036;-76
2024/02/11 03:36:32;;;;;;;24.88;16.23;;;;;;;;;;5078859;28;20043;-76
2024/02/11 03:38:57;;;;;;;23.75;15.40;;;;;;;;;;5070321;28;20093;-76
2024/02/11 03:41:22;;;;;;;27.33;16.58;;;;;;;;;;5069788;28;20024;-76
2024/02/11 03:43:48;;;;;;;25.23;15.38;;;;;;;;;;5071675;28;20024;-76
2024/02/11 03:46:13;;;;;;;26.05;16.15;;;;;;;;;;5069985;28;20550;-76
2024/02/11 03:48:38;;;;;;;26.70;16.15;;;;;;;;;;5070103;28;20040;-76
2024/02/11 03:51:06;;;;;;;24.58;15.75;;;;;;;;;;5069744;28;20037;-76
2024/02/11 03:53:32;;;;;;;24.40;15.68;;;;;;;;;;5071318;28;20031;-76
2024/02/11 03:55:57;;;;;;;27.52;16.50;;;;;;;;;;5070112;28;20176;-76
2024/02/11 03:58:24;;;;;;;22.65;15.00;;;;;;;;;;5069877;28;20024;-76
2024/02/11 04:00:49;;;;;;;25.60;16.42;;;;;;;;;;5069665;28;20488;-76
2024/02/11 04:03:16;;;;;;;31.83;17.60;;;;;;;;;;5074793;28;20031;-76
2024/02/11 04:05:43;;;;;;;24.73;15.35;;;;;;;;;;5070448;28;20105;-76
2024/02/11 04:08:26;;;;;;;24.05;16.10;;;;;;;;;;5072756;28;20082;-76
2024/02/11 04:10:52;;;;;;;24.65;15.02;;;;;;;;;;5072208;28;20048;-76
2024/02/11 04:13:23;;;;;;;26.13;16.48;;;;;;;;;;5070528;28;20143;-76
2024/02/11 04:15:49;;;;;;;27.58;16.92;;;;;;;;;;5076325;28;20036;-76
2024/02/11 04:18:14;;;;;;;25.80;17.13;;;;;;;;;;5074127;28;20029;-76
2024/02/11 04:20:40;;;;;;;27.50;16.25;;;;;;;;;;5073335;28;20051;-76
2024/02/11 04:23:07;;;;;;;28.52;17.27;;;;;;;;;;5073712;28;20085;-76
2024/02/11 04:25:34;;;;;;;26.15;15.45;;;;;;;;;;5074742;28;20454;-76
2024/02/11 04:28:08;;;;;;;23.30;16.02;;;;;;;;;;5073653;28;20500;-76
2024/02/11 04:30:34;;;;;;;27.60;16.45;;;;;;;;;;5073139;28;20043;-75
2024/02/11 04:33:02;;;;;;;29.77;17.70;;;;;;;;;;5077878;28;20029;-76
2024/02/11 04:35:27;;;;;;;31.15;18.02;;;;;;;;;;5074634;28;20029;-77
2024/02/11 04:37:53;;;;;;;27.23;17.27;;;;;;;;;;5073881;28;20488;-76
2024/02/11 04:40:19;;;;;;;30.00;18.20;;;;;;;;;;5074348;28;20028;-76
2024/02/11 04:42:52;;;;;;;28.38;18.13;;;;;;;;;;5078466;28;20047;-76
2024/02/11 04:45:18;;;;;;;30.77;19.35;;;;;;;;;;5075116;28;20063;-76
2024/02/11 04:47:48;;;;;;;32.28;19.88;;;;;;;;;;5076348;28;20048;-76
2024/02/11 04:50:16;;;;;;;31.05;19.35;;;;;;;;;;5073966;28;20108;-76
2024/02/11 04:52:54;;;;;;;29.65;18.23;;;;;;;;;;5073219;28;20489;-76
2024/02/11 04:55:19;;;;;;;28.75;15.98;;;;;;;;;;5073973;28;20036;-76
2024/02/11 04:57:44;;;;;;;28.70;17.40;;;;;;;;;;5080579;28;20054;-76
2024/02/11 05:00:18;;;;;;;33.00;20.10;;;;;;;;;;5083373;28;20028;-76
2024/02/11 05:02:44;;;;;;;29.60;18.50;;;;;;;;;;5077447;28;20078;-76
2024/02/11 05:05:11;;;;;;;31.60;18.95;;;;;;;;;;5074064;28;20078;-76
2024/02/11 05:07:36;;;;;;;28.33;17.10;;;;;;;;;;5073012;28;20060;-76
2024/02/11 05:10:02;;;;;;;29.92;18.13;;;;;;;;;;5072606;28;20052;-76
2024/02/11 05:12:27;;;;;;;31.15;18.80;;;;;;;;;;5072954;28;20111;-76
2024/02/11 05:14:52;;;;;;;28.70;17.10;;;;;;;;;;5073048;28;20024;-76
2024/02/11 05:17:19;;;;;;;27.47;16.50;;;;;;;;;;5072883;28;20025;-76
2024/02/11 05:19:44;;;;;;;28.77;16.33;;;;;;;;;;5071362;28;20273;-76
2024/02/11 05:22:09;;;;;;;26.30;16.58;;;;;;;;;;5072702;28;20113;-76
2024/02/11 05:24:37;;;;;;;30.38;17.00;;;;;;;;;;5072674;28;20036;-76
2024/02/11 05:27:03;;;;;;;24.38;14.98;;;;;;;;;;5072560;28;20056;-76
2024/02/11 05:29:29;;;;;;;24.05;16.02;;;;;;;;;;5081299;28;20581;-76
2024/02/11 05:31:54;;;;;;;25.80;15.43;;;;;;;;;;5080868;28;20036;-76
2024/02/11 05:34:19;;;;;;;24.17;16.17;;;;;;;;;;5076625;28;20021;-76
2024/02/11 05:36:45;;;;;;;29.30;16.90;;;;;;;;;;5072347;28;20173;-76
2024/02/11 05:39:10;;;;;;;27.63;17.55;;;;;;;;;;5072695;28;20024;-76
2024/02/11 05:41:36;;;;;;;26.63;16.73;;;;;;;;;;5072254;28;20049;-76
2024/02/11 05:44:01;;;;;;;25.13;15.75;;;;;;;;;;5072210;28;20033;-76
2024/02/11 05:46:26;;;;;;;30.50;16.90;;;;;;;;;;5072081;28;20032;-76
2024/02/11 05:48:51;;;;;;;26.60;16.58;;;;;;;;;;5072432;28;20129;-76
2024/02/11 05:51:16;;;;;;;27.03;16.93;;;;;;;;;;5071886;28;20476;-76
2024/02/11 05:53:42;;;;;;;37.65;19.50;;;;;;;;;;5071871;28;20279;-76
2024/02/11 05:56:07;;;;;;;23.63;15.82;;;;;;;;;;5070960;28;20575;-76
2024/02/11 05:58:32;;;;;;;24.30;16.90;;;;;;;;;;5071985;28;20035;-76
2024/02/11 06:00:57;;;;;;;25.70;16.92;;;;;;;;;;5071619;28;20035;-76
2024/02/11 06:03:22;;;;;;;26.42;16.35;;;;;;;;;;5076106;28;20496;-76
2024/02/11 06:05:49;;;;;;;28.45;17.00;;;;;;;;;;5077464;28;20033;-76
2024/02/11 06:08:15;;;;;;;25.83;15.63;;;;;;;;;;5072040;28;20028;-76
2024/02/11 06:10:40;;;;;;;27.15;17.58;;;;;;;;;;5070080;28;20386;-76
2024/02/11 06:13:08;;;;;;;27.35;17.38;;;;;;;;;;5071743;28;20107;-76
2024/02/11 06:15:37;;;;;;;24.55;15.45;;;;;;;;;;5077792;28;20035;-76
2024/02/11 06:18:03;;;;;;;25.25;14.85;;;;;;;;;;5079586;28;20104;-76
2024/02/11 06:20:29;;;;;;;26.70;16.58;;;;;;;;;;5071313;28;20111;-76
2024/02/11 06:22:55;;;;;;;25.63;15.30;;;;;;;;;;5071284;28;20467;-76
2024/02/11 06:25:20;;;;;;;29.35;17.10;;;;;;;;;;5078892;28;20052;-76
2024/02/11 06:27:48;;;;;;;27.92;16.73;;;;;;;;;;5071279;28;20102;-76
2024/02/11 06:30:13;;;;;;;26.88;15.80;;;;;;;;;;5070927;28;20075;-76
2024/02/11 06:32:42;;;;;;;29.65;17.17;;;;;;;;;;5075843;28;20669;-76
2024/02/11 06:35:09;;;;;;;30.00;17.48;;;;;;;;;;5079773;28;20028;-76
2024/02/11 06:37:35;;;;;;;27.77;16.38;;;;;;;;;;5069551;28;20039;-76
2024/02/11 06:40:00;;;;;;;28.60;16.40;;;;;;;;;;5070135;28;20025;-76
2024/02/11 06:42:26;;;;;;;24.08;14.68;;;;;;;;;;5078296;28;20028;-76
2024/02/11 06:44:52;;;;;;;27.85;16.23;;;;;;;;;;5076330;28;20032;-76
2024/02/11 06:47:18;;;;;;;27.58;15.57;;;;;;;;;;5071099;28;20397;-76
2024/02/11 06:49:43;;;;;;;29.48;17.77;;;;;;;;;;5069805;28;20037;-76
2024/02/11 06:52:09;;;;;;;25.50;15.88;;;;;;;;;;5071393;28;20032;-76
2024/02/11 06:54:35;;;;;;;24.73;14.57;;;;;;;;;;5079756;28;20028;-76
2024/02/11 06:57:00;;;;;;;27.40;15.73;;;;;;;;;;5070987;28;20408;-76
2024/02/11 06:59:25;;;;;;;27.92;14.93;;;;;;;;;;5070826;28;20028;-76
2024/02/11 07:01:53;;;;;;;27.33;15.10;;;;;;;;;;5075463;28;20419;-76
2024/02/11 07:04:18;;;;;;;23.98;14.32;;;;;;;;;;5080927;28;20778;-76
2024/02/11 07:06:46;;;;;;;22.90;15.50;;;;;;;;;;5071283;28;20064;-76
2024/02/11 07:09:12;;;;;;;24.70;15.18;;;;;;;;;;5077829;28;20678;-76
2024/02/11 07:11:40;;;;;;;24.65;14.95;;;;;;;;;;5071839;28;20135;-76
2024/02/11 07:14:06;;;;;;;23.02;15.05;;;;;;;;;;5077223;28;20036;-76
2024/02/11 07:16:32;;;;;;;25.02;16.58;;;;;;;;;;5069081;28;20024;-76
2024/02/11 07:18:57;;;;;;;27.73;17.42;;;;;;;;;;5070814;28;20447;-76
2024/02/11 07:21:22;;;;;;;27.17;16.17;;;;;;;;;;5070200;28;20039;-76
2024/02/11 07:23:47;;;;;;;31.13;17.23;;;;;;;;;;5072229;28;20296;-75
2024/02/11 07:26:14;;;;;;;24.80;15.80;;;;;;;;;;5073449;28;20036;-75
2024/02/11 07:28:39;;;;;;;25.45;16.58;;;;;;;;;;5070386;28;20262;-76
2024/02/11 07:31:04;;;;;;;28.80;16.50;;;;;;;;;;5069786;28;20409;-76
2024/02/11 07:33:29;;;;;;;25.50;15.77;;;;;;;;;;5073041;28;20048;-76
2024/02/11 07:35:55;;;;;;;25.95;15.20;;;;;;;;;;5076603;28;20107;-76
2024/02/11 07:38:21;;;;;;;27.85;16.17;;;;;;;;;;5074626;28;20500;-76
2024/02/11 07:40:49;;;;;;;25.00;15.73;;;;;;;;;;5072286;28;20054;-76
2024/02/11 07:43:15;;;;;;;26.55;16.42;;;;;;;;;;5070168;28;20020;-76
2024/02/11 07:45:42;;;;;;;24.42;15.40;;;;;;;;;;5076912;28;20031;-76
2024/02/11 07:48:08;;;;;;;25.08;15.13;;;;;;;;;;5069282;28;20028;-75
2024/02/11 07:50:34;;;;;;;24.98;14.82;;;;;;;;;;5068721;28;20036;-76
2024/02/11 07:52:59;;;;;;;26.58;17.33;;;;;;;;;;5070039;28;20043;-76
2024/02/11 07:55:24;;;;;;;25.40;15.65;;;;;;;;;;5074064;28;20028;-76
2024/02/11 07:57:49;;;;;;;26.02;14.23;;;;;;;;;;5070115;28;20020;-76
2024/02/11 08:00:15;;;;;;;27.10;16.38;;;;;;;;;;5068427;28;20547;-76
2024/02/11 08:02:40;;;;;;;25.17;16.00;;;;;;;;;;5074729;28;20035;-76
2024/02/11 08:05:07;;;;;;;25.10;15.32;;;;;;;;;;5074959;28;20075;-76
2024/02/11 08:07:32;;;;;;;25.48;15.88;;;;;;;;;;5070028;28;20032;-76
2024/02/11 08:09:57;;;;;;;25.05;15.73;;;;;;;;;;5069649;28;20090;-76
2024/02/11 08:12:22;;;;;;;28.42;15.98;;;;;;;;;;5070082;28;20052;-76
2024/02/11 08:14:47;;;;;;;24.67;16.00;;;;;;;;;;5074458;28;20048;-75
2024/02/11 08:17:13;;;;;;;22.88;14.43;;;;;;;;;;5069853;28;20348;-76
2024/02/11 08:19:38;;;;;;;23.45;14.43;;;;;;;;;;5069850;28;20052;-76
2024/02/11 08:22:06;;;;;;;27.20;16.73;;;;;;;;;;5069486;28;20107;-76
2024/02/11 08:24:33;;;;;;;24.10;15.70;;;;;;;;;;5074392;28;20123;-76
2024/02/11 08:26:58;;;;;;;23.38;15.45;;;;;;;;;;5069778;28;20056;-76
2024/02/11 08:29:23;;;;;;;24.35;16.75;;;;;;;;;;5068702;28;20060;-76
2024/02/11 08:31:49;;;;;;;23.77;15.37;;;;;;;;;;5069103;28;20087;-76
2024/02/11 08:34:15;;;;;;;24.23;14.95;;;;;;;;;;5078407;28;20357;-76
2024/02/11 08:36:41;;;;;;;25.02;15.93;;;;;;;;;;5070827;28;20036;-76
2024/02/11 08:39:06;;;;;;;26.27;15.70;;;;;;;;;;5071723;28;20036;-76
2024/02/11 08:41:33;;;;;;;21.60;14.43;;;;;;;;;;5069322;28;20032;-76
2024/02/11 08:43:59;;;;;;;23.42;15.38;;;;;;;;;;5070219;28;20039;-76
2024/02/11 08:46:24;;;;;;;21.75;13.38;;;;;;;;;;5077070;28;20024;-76
2024/02/11 08:48:49;;;;;;;22.80;15.53;;;;;;;;;;5069542;28;20503;-76
2024/02/11 08:51:20;;;;;;;24.90;15.93;;;;;;;;;;5069168;28;20347;-76
2024/02/11 08:53:45;;;;;;;21.55;14.88;;;;;;;;;;5069673;28;20604;-76
2024/02/11 08:56:10;;;;;;;23.85;15.40;;;;;;;;;;5075296;28;20040;-76
2024/02/11 08:58:35;;;;;;;26.30;15.50;;;;;;;;;;5075771;28;20035;-76
2024/02/11 09:01:00;;;;;;;25.90;14.98;;;;;;;;;;5075802;28;20025;-76
2024/02/11 09:03:26;;;;;;;24.40;14.27;;;;;;;;;;5081772;28;20031;-76
2024/02/11 09:05:52;;;;;;;23.05;14.30;;;;;;;;;;5081499;28;20443;-76
2024/02/11 09:08:18;;;;;;;23.52;15.35;;;;;;;;;;5073211;28;20036;-76
2024/02/11 09:10:43;;;;;;;22.75;14.18;;;;;;;;;;5072694;28;20952;-76
2024/02/11 09:13:10;;;;;;;23.25;15.50;;;;;;;;;;5072915;28;20031;-76
2024/02/11 09:15:36;;;;;;;23.38;15.32;;;;;;;;;;5075443;28;20028;-76
2024/02/11 09:18:01;;;;;;;26.80;15.70;;;;;;;;;;5072905;28;20099;-76
2024/02/11 09:20:26;;;;;;;25.85;16.17;;;;;;;;;;5072497;28;20393;-76
2024/02/11 09:22:52;;;;;;;25.13;15.43;;;;;;;;;;5072663;28;20032;-76
2024/02/11 09:25:17;;;;;;;23.38;15.45;;;;;;;;;;5077861;28;20282;-76
2024/02/11 09:27:43;;;;;;;24.08;15.55;;;;;;;;;;5071490;28;20041;-76
2024/02/11 09:30:11;;;;;;;24.40;15.40;;;;;;;;;;5072257;28;20112;-76
2024/02/11 09:32:36;;;;;;;24.50;14.45;;;;;;;;;;5076983;28;20020;-76
2024/02/11 09:35:02;;;;;;;23.40;14.75;;;;;;;;;;5080838;28;20040;-75
2024/02/11 09:37:27;;;;;;;22.00;15.65;;;;;;;;;;5077980;28;20412;-76
2024/02/11 09:39:52;;;;;;;27.05;15.77;;;;;;;;;;5076323;28;20047;-76
2024/02/11 09:42:20;;;;;;;25.73;15.32;;;;;;;;;;5072545;28;20119;-76
2024/02/11 09:44:46;;;;;;;21.85;14.18;;;;;;;;;;5077376;28;20032;-76
2024/02/11 09:47:12;;;;;;;21.95;14.25;;;;;;;;;;5072446;28;20064;-76
2024/02/11 09:49:38;;;;;;;20.98;14.35;;;;;;;;;;5072259;28;20044;-76
2024/02/11 09:52:04;;;;;;;25.80;14.60;;;;;;;;;;5071997;28;20033;-76
2024/02/11 09:54:31;;;;;;;23.98;15.80;;;;;;;;;;5075914;28;20028;-76
2024/02/11 09:56:56;;;;;;;23.02;14.52;;;;;;;;;;5072274;28;20025;-76
2024/02/11 09:59:26;;;;;;;25.70;16.25;;;;;;;;;;5072235;28;20025;-76
2024/02/11 10:01:51;;;;;;;23.20;14.60;;;;;;;;;;5071513;28;20035;-76
2024/02/11 10:04:17;;;;;;;21.17;14.73;;;;;;;;;;5080332;28;20598;-76
2024/02/11 10:06:42;;;;;;;23.20;16.00;;;;;;;;;;5073425;28;20106;-76
2024/02/11 10:09:12;;;;;;;21.73;14.82;;;;;;;;;;5072053;28;20119;-76
2024/02/11 10:11:38;;;;;;;21.65;14.43;;;;;;;;;;5071389;28;20025;-76
2024/02/11 10:14:08;;;;;;;23.48;14.15;;;;;;;;;;5072229;28;20025;-76
2024/02/11 10:16:34;;;;;;;22.52;14.95;;;;;;;;;;5074179;28;20024;-76
2024/02/11 10:18:59;;;;;;;21.20;14.70;;;;;;;;;;5071727;28;20021;-76
2024/02/11 10:21:25;;;;;;;21.67;14.45;;;;;;;;;;5071603;28;20041;-76
2024/02/11 10:23:50;;;;;;;25.58;14.48;;;;;;;;;;5071319;28;20052;-76
2024/02/11 10:26:15;;;;;;;23.07;14.50;;;;;;;;;;5076285;28;20043;-76
2024/02/11 10:28:40;;;;;;;22.90;14.60;;;;;;;;;;5071469;28;20302;-76
2024/02/11 10:31:06;;;;;;;22.73;15.35;;;;;;;;;;5074190;28;20374;-76
2024/02/11 10:33:34;;;;;;;24.45;15.48;;;;;;;;;;5080062;28;20059;-76
2024/02/11 10:36:03;;;;;;;23.77;15.70;;;;;;;;;;5075520;28;20055;-76
2024/02/11 10:38:31;;;;;;;24.73;15.02;;;;;;;;;;5071446;28;20033;-76
2024/02/11 10:40:58;;;;;;;23.23;16.00;;;;;;;;;;5075008;28;20043;-76
2024/02/11 10:43:25;;;;;;;23.52;15.38;;;;;;;;;;5072547;28;20388;-76
2024/02/11 10:45:51;;;;;;;22.95;14.65;;;;;;;;;;5074370;28;20481;-76
2024/02/11 10:48:18;;;;;;;20.60;13.57;;;;;;;;;;5069698;28;20562;-76
2024/02/11 10:50:45;;;;;;;21.70;14.85;;;;;;;;;;5069427;28;20519;-76
2024/02/11 10:53:13;;;;;;;21.40;14.63;;;;;;;;;;5071029;28;20035;-76
2024/02/11 10:55:42;;;;;;;20.90;14.82;;;;;;;;;;5075065;28;20021;-76
2024/02/11 10:58:08;;;;;;;22.25;14.82;;;;;;;;;;5073929;28;20025;-76
2024/02/11 11:00:34;;;;;;;27.48;16.00;;;;;;;;;;5070393;28;20512;-76
2024/02/11 11:03:01;;;;;;;25.60;15.80;;;;;;;;;;5075310;28;20040;-76
2024/02/11 11:05:30;;;;;;;24.75;15.73;;;;;;;;;;5074822;28;20085;-76
2024/02/11 11:07:56;;;;;;;20.83;13.45;;;;;;;;;;5078871;28;20039;-76
2024/02/11 11:10:21;;;;;;;19.08;13.18;;;;;;;;;;5072503;28;20412;-76
2024/02/11 11:12:50;;;;;;;20.40;14.32;;;;;;;;;;5070780;28;20037;-76
2024/02/11 11:15:26;;;;;;;21.35;15.30;;;;;;;;;;5074494;28;20059;-76
2024/02/11 11:17:52;;;;;;;23.48;15.68;;;;;;;;;;5069138;28;20391;-76
2024/02/11 11:20:18;;;;;;;20.02;14.43;;;;;;;;;;5070229;28;20028;-76
2024/02/11 11:22:48;;;;;;;21.38;14.82;;;;;;;;;;5068859;28;20078;-75
2024/02/11 11:25:14;;;;;;;18.13;12.48;;;;;;;;;;5074125;28;20107;-76
2024/02/11 11:27:39;;;;;;;19.27;12.95;;;;;;;;;;5070248;28;20501;-76
2024/02/11 11:30:10;;;;;;;21.23;14.48;;;;;;;;;;5070278;28;20182;-76
2024/02/11 11:32:36;;;;;;;21.43;14.33;;;;;;;;;;5075388;28;20048;-76
2024/02/11 11:35:03;;;;;;;19.67;13.00;;;;;;;;;;5075133;28;20106;-76
2024/02/11 11:37:28;;;;;;;18.42;12.15;;;;;;;;;;5077210;28;20032;-76
2024/02/11 11:39:56;;;;;;;18.63;11.55;;;;;;;;;;5069858;28;20025;-76
2024/02/11 11:42:22;;;;;;;16.30;10.63;;;;;;;;;;5070262;28;20024;-76
2024/02/11 11:44:47;;;;;;;16.50;10.60;;;;;;;;;;5073755;28;21672;-76
2024/02/11 11:47:13;;;;;;;17.83;11.70;;;;;;;;;;5070189;28;20409;-76
2024/02/11 11:49:39;;;;;;;15.30;10.50;;;;;;;;;;5070143;28;20279;-76
2024/02/11 11:52:07;;;;;;;16.52;10.27;;;;;;;;;;5069739;28;20037;-76
2024/02/11 11:54:34;;;;;;;16.02;10.85;;;;;;;;;;5073609;28;20154;-76
2024/02/11 11:56:59;;;;;;;15.05;10.15;;;;;;;;;;5070282;28;20095;-76
2024/02/11 11:59:25;;;;;;;14.82;10.23;;;;;;;;;;5068994;28;20599;-76
2024/02/11 12:01:55;;;;;;;15.27;10.43;;;;;;;;;;5069498;28;20059;-76
2024/02/11 12:04:20;;;;;;;16.33;11.38;;;;;;;;;;5073812;28;20036;-76
2024/02/11 12:06:46;;;;;;;15.32;9.73;;;;;;;;;;5071153;28;20035;-76
2024/02/11 12:09:14;;;;;;;15.02;11.75;;;;;;;;;;5070077;28;20503;-75
2024/02/11 12:11:48;;;;;;;15.13;10.43;;;;;;;;;;5069577;28;20040;-76
2024/02/11 12:14:14;;;;;;;15.20;10.52;;;;;;;;;;5071325;28;20400;-76
2024/02/11 12:16:40;;;;;;;17.23;11.35;;;;;;;;;;5071946;28;20033;-76
2024/02/11 12:19:05;;;;;;;16.75;10.25;;;;;;;;;;5073561;28;20032;-76
2024/02/11 12:21:31;;;;;;;14.40;9.98;;;;;;;;;;5069470;28;20032;-76
2024/02/11 12:23:57;;;;;;;13.80;9.13;;;;;;;;;;5073512;28;20467;-76
2024/02/11 12:26:23;;;;;;;15.20;9.07;;;;;;;;;;5072866;28;20033;-76
2024/02/11 12:28:51;;;;;;;13.60;8.77;;;;;;;;;;5069833;28;20041;-76
2024/02/11 12:31:16;;;;;;;15.23;9.10;;;;;;;;;;5071062;28;20032;-76
2024/02/11 12:33:42;;;;;;;15.07;9.87;;;;;;;;;;5075845;28;20032;-76
2024/02/11 12:36:09;;;;;;;15.50;9.25;;;;;;;;;;5075375;28;20334;-75
2024/02/11 12:38:36;;;;;;;12.60;8.85;;;;;;;;;;5073593;28;20034;-76
2024/02/11 12:41:01;;;;;;;15.82;10.57;;;;;;;;;;5073392;28;20040;-76
2024/02/11 12:43:27;;;;;;;18.52;12.13;;;;;;;;;;5073438;28;20598;-76
2024/02/11 12:45:53;;;;;;;14.07;9.23;;;;;;;;;;5076398;28;20507;-76
2024/02/11 12:48:18;;;;;;;14.05;10.02;;;;;;;;;;5073420;28;20033;-76
2024/02/11 12:50:44;;;;;;;17.10;11.13;;;;;;;;;;5072876;28;20025;-76
2024/02/11 12:53:10;;;;;;;13.68;10.02;;;;;;;;;;5073497;28;20040;-76
2024/02/11 12:55:35;;;;;;;14.23;9.90;;;;;;;;;;5075824;28;20103;-76
2024/02/11 12:58:01;;;;;;;17.60;11.13;;;;;;;;;;5073372;28;20151;-76
2024/02/11 13:00:26;;;;;;;15.77;9.70;;;;;;;;;;5072863;28;20396;-76
2024/02/11 13:02:51;;;;;;;12.98;8.05;;;;;;;;;;5078258;28;20370;-76
2024/02/11 13:05:17;;;;;;;14.85;9.95;;;;;;;;;;5075640;28;20028;-76
2024/02/11 13:07:42;;;;;;;16.13;9.25;;;;;;;;;;5072891;28;20028;-75
2024/02/11 13:10:11;;;;;;;12.73;8.83;;;;;;;;;;5072839;28;20032;-76
2024/02/11 13:12:39;;;;;;;14.65;10.57;;;;;;;;;;5082069;28;20650;-76
2024/02/11 13:15:13;;;;;;;16.10;11.60;;;;;;;;;;5075421;28;20381;-75
2024/02/11 13:17:41;;;;;;;16.63;11.95;;;;;;;;;;5079258;28;20071;-75
2024/02/11 13:20:08;;;;;;;16.73;10.95;;;;;;;;;;5072514;28;20036;-76
2024/02/11 13:22:33;;;;;;;20.80;12.77;;;;;;;;;;5072647;28;20032;-76
2024/02/11 13:24:59;;;;;;;16.75;11.15;;;;;;;;;;5074875;28;20458;-76
2024/02/11 13:27:26;;;;;;;18.08;11.52;;;;;;;;;;5071576;28;20039;-76
2024/02/11 13:29:52;;;;;;;14.75;10.55;;;;;;;;;;5072203;28;20470;-76
2024/02/11 13:32:18;;;;;;;17.73;11.30;;;;;;;;;;5075787;28;20068;-76
2024/02/11 13:34:43;;;;;;;20.90;14.85;;;;;;;;;;5076593;28;20499;-76
2024/02/11 13:37:08;;;;;;;18.83;12.27;;;;;;;;;;5072617;28;20037;-76
2024/02/11 13:39:33;;;;;;;20.35;14.38;;;;;;;;;;5072531;28;20067;-75
2024/02/11 13:41:58;;;;;;;19.60;13.65;;;;;;;;;;5074149;28;20093;-75
2024/02/11 13:44:24;;;;;;;21.40;13.65;;;;;;;;;;5080862;28;20033;-76
2024/02/11 13:46:49;;;;;;;20.63;13.90;;;;;;;;;;5073184;28;20032;-76
2024/02/11 13:49:14;;;;;;;16.60;12.75;;;;;;;;;;5072484;28;20358;-76
2024/02/11 13:51:39;;;;;;;19.77;12.48;;;;;;;;;;5070340;28;20039;-75
2024/02/11 13:54:05;;;;;;;18.63;11.68;;;;;;;;;;5072089;28;20056;-76
2024/02/11 13:56:30;;;;;;;21.77;12.77;;;;;;;;;;5074220;28;20170;-75
2024/02/11 13:58:56;;;;;;;17.70;12.65;;;;;;;;;;5072144;28;20481;-76
2024/02/11 14:01:22;;;;;;;18.10;12.40;;;;;;;;;;5071794;28;20111;-75
2024/02/11 14:03:48;;;;;;;20.17;13.93;;;;;;;;;;5076877;28;20047;-75
2024/02/11 14:06:14;;;;;;;21.90;14.48;;;;;;;;;;5073867;28;20040;-75
2024/02/11 14:08:40;;;;;;;22.45;15.05;;;;;;;;;;5071952;28;20079;-75
2024/02/11 14:11:05;;;;;;;23.23;15.95;;;;;;;;;;5071736;28;20473;-75